sensor_id;sensor_type;location;lat;lon;timestamp;temperature;humidity
26687;DHT22;14298;50.900;4.648;2022-10-16T00:01:40;13.30;97.10
26687;DHT22;14298;50.900;4.648;2022-10-16T00:04:09;13.30;97.10
26687;DHT22;14298;50.900;4.648;2022-10-16T00:06:37;13.30;97.10
26687;DHT22;14298;50.900;4.648;2022-10-16T00:09:06;13.30;97.10
26687;DHT22;14298;50.900;4.648;2022-10-16T00:11:37;13.20;97.10
26687;DHT22;14298;50.900;4.648;2022-10-16T00:14:09;13.20;97.10
26687;DHT22;14298;50.900;4.648;2022-10-16T00:16:37;13.30;97.10
26687;DHT22;14298;50.900;4.648;2022-10-16T00:19:06;13.30;97.10
26687;DHT22;14298;50.900;4.648;2022-10-16T00:21:35;13.30;97.10
26687;DHT22;14298;50.900;4.648;2022-10-16T00:24:06;13.30;97.10
26687;DHT22;14298;50.900;4.648;2022-10-16T00:26:36;13.40;97.10
26687;DHT22;14298;50.900;4.648;2022-10-16T00:29:06;13.40;97.10
26687;DHT22;14298;50.900;4.648;2022-10-16T00:31:35;13.40;97.10
26687;DHT22;14298;50.900;4.648;2022-10-16T00:34:03;13.40;97.10
26687;DHT22;14298;50.900;4.648;2022-10-16T00:36:31;13.40;97.10
26687;DHT22;14298;50.900;4.648;2022-10-16T00:39:00;13.40;97.10
26687;DHT22;14298;50.900;4.648;2022-10-16T00:41:29;13.40;97.10
26687;DHT22;14298;50.900;4.648;2022-10-16T00:44:03;13.40;97.10
26687;DHT22;14298;50.900;4.648;2022-10-16T00:46:42;13.30;97.10
26687;DHT22;14298;50.900;4.648;2022-10-16T00:49:16;13.30;97.10
26687;DHT22;14298;50.900;4.648;2022-10-16T00:51:49;13.30;97.10
26687;DHT22;14298;50.900;4.648;2022-10-16T00:54:20;13.30;97.10
26687;DHT22;14298;50.900;4.648;2022-10-16T00:56:50;13.20;97.10
26687;DHT22;14298;50.900;4.648;2022-10-16T00:59:22;13.20;97.10
26687;DHT22;14298;50.900;4.648;2022-10-16T01:01:52;13.10;97.10
26687;DHT22;14298;50.900;4.648;2022-10-16T01:04:21;13.10;97.10
26687;DHT22;14298;50.900;4.648;2022-10-16T01:12:50;13.00;97.10
26687;DHT22;14298;50.900;4.648;2022-10-16T01:18:07;13.00;97.10
26687;DHT22;14298;50.900;4.648;2022-10-16T01:20:53;13.00;97.10
26687;DHT22;14298;50.900;4.648;2022-10-16T01:26:28;13.00;97.10
26687;DHT22;14298;50.900;4.648;2022-10-16T01:31:31;13.00;97.10
26687;DHT22;14298;50.900;4.648;2022-10-16T01:34:06;13.00;97.10
26687;DHT22;14298;50.900;4.648;2022-10-16T01:36:55;13.00;97.10
26687;DHT22;14298;50.900;4.648;2022-10-16T01:39:26;13.00;97.10
26687;DHT22;14298;50.900;4.648;2022-10-16T01:42:11;13.00;97.10
26687;DHT22;14298;50.900;4.648;2022-10-16T01:44:39;13.00;97.10
26687;DHT22;14298;50.900;4.648;2022-10-16T01:47:10;13.00;97.10
26687;DHT22;14298;50.900;4.648;2022-10-16T01:49:40;13.00;97.10
26687;DHT22;14298;50.900;4.648;2022-10-16T01:52:12;13.10;97.10
26687;DHT22;14298;50.900;4.648;2022-10-16T01:54:43;13.00;97.10
26687;DHT22;14298;50.900;4.648;2022-10-16T01:57:13;13.00;97.10
26687;DHT22;14298;50.900;4.648;2022-10-16T01:59:47;13.00;97.10
26687;DHT22;14298;50.900;4.648;2022-10-16T02:02:17;13.00;97.10
26687;DHT22;14298;50.900;4.648;2022-10-16T02:04:53;13.00;97.10
26687;DHT22;14298;50.900;4.648;2022-10-16T02:07:22;13.00;97.10
26687;DHT22;14298;50.900;4.648;2022-10-16T02:09:51;13.00;97.10
26687;DHT22;14298;50.900;4.648;2022-10-16T02:12:33;13.00;97.10
26687;DHT22;14298;50.900;4.648;2022-10-16T02:15:03;13.00;97.10
26687;DHT22;14298;50.900;4.648;2022-10-16T02:17:32;13.00;97.10
26687;DHT22;14298;50.900;4.648;2022-10-16T02:20:01;13.00;97.10
26687;DHT22;14298;50.900;4.648;2022-10-16T02:22:40;13.00;97.10
26687;DHT22;14298;50.900;4.648;2022-10-16T02:25:17;13.00;97.10
26687;DHT22;14298;50.900;4.648;2022-10-16T02:28:01;13.10;97.10
26687;DHT22;14298;50.900;4.648;2022-10-16T02:30:33;13.10;97.10
26687;DHT22;14298;50.900;4.648;2022-10-16T02:33:05;13.10;97.10
26687;DHT22;14298;50.900;4.648;2022-10-16T02:35:34;13.10;97.10
26687;DHT22;14298;50.900;4.648;2022-10-16T02:38:04;13.10;97.10
26687;DHT22;14298;50.900;4.648;2022-10-16T02:40:52;13.10;97.10
26687;DHT22;14298;50.900;4.648;2022-10-16T02:46:01;13.00;97.10
26687;DHT22;14298;50.900;4.648;2022-10-16T02:48:30;13.00;97.10
26687;DHT22;14298;50.900;4.648;2022-10-16T02:50:58;13.00;97.10
26687;DHT22;14298;50.900;4.648;2022-10-16T02:53:26;13.00;97.10
26687;DHT22;14298;50.900;4.648;2022-10-16T02:55:55;13.00;97.10
26687;DHT22;14298;50.900;4.648;2022-10-16T02:58:23;12.90;97.10
26687;DHT22;14298;50.900;4.648;2022-10-16T03:00:51;12.90;97.10
26687;DHT22;14298;50.900;4.648;2022-10-16T03:03:20;12.90;97.10
26687;DHT22;14298;50.900;4.648;2022-10-16T03:05:48;12.90;97.10
26687;DHT22;14298;50.900;4.648;2022-10-16T03:08:16;12.90;97.10
26687;DHT22;14298;50.900;4.648;2022-10-16T03:11:05;12.90;97.10
26687;DHT22;14298;50.900;4.648;2022-10-16T03:13:34;12.90;97.10
26687;DHT22;14298;50.900;4.648;2022-10-16T03:16:02;12.90;97.10
26687;DHT22;14298;50.900;4.648;2022-10-16T03:18:31;12.90;97.10
26687;DHT22;14298;50.900;4.648;2022-10-16T03:20:59;12.90;97.10
26687;DHT22;14298;50.900;4.648;2022-10-16T03:23:27;12.90;97.10
26687;DHT22;14298;50.900;4.648;2022-10-16T03:25:56;12.90;97.10
26687;DHT22;14298;50.900;4.648;2022-10-16T03:28:24;12.90;97.10
26687;DHT22;14298;50.900;4.648;2022-10-16T03:30:53;12.90;97.10
26687;DHT22;14298;50.900;4.648;2022-10-16T03:33:21;12.90;97.10
26687;DHT22;14298;50.900;4.648;2022-10-16T03:35:53;13.00;97.10
26687;DHT22;14298;50.900;4.648;2022-10-16T03:38:22;13.00;97.10
26687;DHT22;14298;50.900;4.648;2022-10-16T03:40:51;13.00;97.10
26687;DHT22;14298;50.900;4.648;2022-10-16T03:43:19;12.90;97.10
26687;DHT22;14298;50.900;4.648;2022-10-16T03:45:49;13.00;97.10
26687;DHT22;14298;50.900;4.648;2022-10-16T03:48:19;12.90;97.10
26687;DHT22;14298;50.900;4.648;2022-10-16T03:51:07;12.90;97.10
26687;DHT22;14298;50.900;4.648;2022-10-16T03:53:54;12.90;97.10
26687;DHT22;14298;50.900;4.648;2022-10-16T03:56:23;12.90;97.10
26687;DHT22;14298;50.900;4.648;2022-10-16T03:58:56;12.90;97.10
26687;DHT22;14298;50.900;4.648;2022-10-16T04:01:21;12.90;97.10
26687;DHT22;14298;50.900;4.648;2022-10-16T04:03:49;12.90;97.10
26687;DHT22;14298;50.900;4.648;2022-10-16T04:06:17;12.90;97.10
26687;DHT22;14298;50.900;4.648;2022-10-16T04:08:46;12.90;97.10
26687;DHT22;14298;50.900;4.648;2022-10-16T04:11:14;12.90;97.10
26687;DHT22;14298;50.900;4.648;2022-10-16T04:13:42;12.90;97.10
26687;DHT22;14298;50.900;4.648;2022-10-16T04:16:12;12.90;97.10
26687;DHT22;14298;50.900;4.648;2022-10-16T04:18:41;12.90;97.10
26687;DHT22;14298;50.900;4.648;2022-10-16T04:21:09;12.90;97.10
26687;DHT22;14298;50.900;4.648;2022-10-16T04:23:38;12.90;97.10
26687;DHT22;14298;50.900;4.648;2022-10-16T04:26:06;12.90;97.10
26687;DHT22;14298;50.900;4.648;2022-10-16T04:28:34;12.90;97.10
26687;DHT22;14298;50.900;4.648;2022-10-16T04:31:06;12.90;97.10
26687;DHT22;14298;50.900;4.648;2022-10-16T04:33:35;12.80;97.10
26687;DHT22;14298;50.900;4.648;2022-10-16T04:36:04;12.90;97.10
26687;DHT22;14298;50.900;4.648;2022-10-16T04:38:52;12.80;97.10
26687;DHT22;14298;50.900;4.648;2022-10-16T04:41:20;12.80;97.10
26687;DHT22;14298;50.900;4.648;2022-10-16T04:43:48;12.90;97.10
26687;DHT22;14298;50.900;4.648;2022-10-16T04:46:17;12.90;97.10
26687;DHT22;14298;50.900;4.648;2022-10-16T04:48:45;12.80;97.10
26687;DHT22;14298;50.900;4.648;2022-10-16T04:51:14;12.80;97.10
26687;DHT22;14298;50.900;4.648;2022-10-16T04:53:42;12.80;97.10
26687;DHT22;14298;50.900;4.648;2022-10-16T04:56:10;12.80;97.10
26687;DHT22;14298;50.900;4.648;2022-10-16T04:58:39;12.80;97.10
26687;DHT22;14298;50.900;4.648;2022-10-16T05:01:07;12.70;97.10
26687;DHT22;14298;50.900;4.648;2022-10-16T05:03:35;12.70;97.10
26687;DHT22;14298;50.900;4.648;2022-10-16T05:06:06;12.70;97.10
26687;DHT22;14298;50.900;4.648;2022-10-16T05:08:34;12.70;97.10
26687;DHT22;14298;50.900;4.648;2022-10-16T05:11:03;12.70;97.10
26687;DHT22;14298;50.900;4.648;2022-10-16T05:13:31;12.70;97.10
26687;DHT22;14298;50.900;4.648;2022-10-16T05:15:59;12.80;97.10
26687;DHT22;14298;50.900;4.648;2022-10-16T05:18:28;12.80;97.10
26687;DHT22;14298;50.900;4.648;2022-10-16T05:20:56;12.80;97.10
26687;DHT22;14298;50.900;4.648;2022-10-16T05:23:24;12.70;97.10
26687;DHT22;14298;50.900;4.648;2022-10-16T05:25:54;12.70;97.10
26687;DHT22;14298;50.900;4.648;2022-10-16T05:28:27;12.70;97.10
26687;DHT22;14298;50.900;4.648;2022-10-16T05:30:57;12.70;97.10
26687;DHT22;14298;50.900;4.648;2022-10-16T05:33:26;12.70;97.10
26687;DHT22;14298;50.900;4.648;2022-10-16T05:35:55;12.70;97.10
26687;DHT22;14298;50.900;4.648;2022-10-16T05:38:23;12.70;97.10
26687;DHT22;14298;50.900;4.648;2022-10-16T05:40:52;12.60;97.10
26687;DHT22;14298;50.900;4.648;2022-10-16T05:43:20;12.60;97.10
26687;DHT22;14298;50.900;4.648;2022-10-16T05:45:57;12.60;97.10
26687;DHT22;14298;50.900;4.648;2022-10-16T05:48:26;12.60;97.10
26687;DHT22;14298;50.900;4.648;2022-10-16T05:50:59;12.60;97.10
26687;DHT22;14298;50.900;4.648;2022-10-16T05:53:29;12.60;97.10
26687;DHT22;14298;50.900;4.648;2022-10-16T05:55:58;12.50;97.10
26687;DHT22;14298;50.900;4.648;2022-10-16T05:58:33;12.60;97.10
26687;DHT22;14298;50.900;4.648;2022-10-16T06:01:06;12.50;97.10
26687;DHT22;14298;50.900;4.648;2022-10-16T06:03:35;12.50;97.10
26687;DHT22;14298;50.900;4.648;2022-10-16T06:06:14;12.50;97.10
26687;DHT22;14298;50.900;4.648;2022-10-16T06:08:44;12.50;97.10
26687;DHT22;14298;50.900;4.648;2022-10-16T06:11:15;12.50;97.10
26687;DHT22;14298;50.900;4.648;2022-10-16T06:13:44;12.50;97.10
26687;DHT22;14298;50.900;4.648;2022-10-16T06:16:13;12.50;97.10
26687;DHT22;14298;50.900;4.648;2022-10-16T06:19:01;12.50;97.10
26687;DHT22;14298;50.900;4.648;2022-10-16T06:21:29;12.60;97.10
26687;DHT22;14298;50.900;4.648;2022-10-16T06:23:58;12.60;97.10
26687;DHT22;14298;50.900;4.648;2022-10-16T06:26:28;12.60;97.10
26687;DHT22;14298;50.900;4.648;2022-10-16T06:28:58;12.60;97.10
26687;DHT22;14298;50.900;4.648;2022-10-16T06:31:28;12.60;97.10
26687;DHT22;14298;50.900;4.648;2022-10-16T06:33:58;12.60;97.10
26687;DHT22;14298;50.900;4.648;2022-10-16T06:36:27;12.60;97.10
26687;DHT22;14298;50.900;4.648;2022-10-16T06:38:56;12.60;97.10
26687;DHT22;14298;50.900;4.648;2022-10-16T06:41:24;12.60;97.10
26687;DHT22;14298;50.900;4.648;2022-10-16T06:43:52;12.60;97.10
26687;DHT22;14298;50.900;4.648;2022-10-16T06:46:23;12.60;97.10
26687;DHT22;14298;50.900;4.648;2022-10-16T06:48:55;12.70;97.10
26687;DHT22;14298;50.900;4.648;2022-10-16T06:51:24;12.70;97.10
26687;DHT22;14298;50.900;4.648;2022-10-16T06:54:12;12.70;97.10
26687;DHT22;14298;50.900;4.648;2022-10-16T06:56:40;12.70;97.10
26687;DHT22;14298;50.900;4.648;2022-10-16T06:59:08;12.80;97.10
26687;DHT22;14298;50.900;4.648;2022-10-16T07:01:36;12.90;97.10
26687;DHT22;14298;50.900;4.648;2022-10-16T07:04:05;12.90;97.10
26687;DHT22;14298;50.900;4.648;2022-10-16T07:06:34;13.00;97.10
26687;DHT22;14298;50.900;4.648;2022-10-16T07:09:05;13.10;97.10
26687;DHT22;14298;50.900;4.648;2022-10-16T07:11:34;13.20;97.10
26687;DHT22;14298;50.900;4.648;2022-10-16T07:14:02;13.30;97.10
26687;DHT22;14298;50.900;4.648;2022-10-16T07:16:50;13.40;97.10
26687;DHT22;14298;50.900;4.648;2022-10-16T07:19:18;13.50;97.10
26687;DHT22;14298;50.900;4.648;2022-10-16T07:21:47;13.70;97.10
26687;DHT22;14298;50.900;4.648;2022-10-16T07:24:16;13.80;97.10
26687;DHT22;14298;50.900;4.648;2022-10-16T07:26:46;13.80;97.10
26687;DHT22;14298;50.900;4.648;2022-10-16T07:29:21;13.90;97.10
26687;DHT22;14298;50.900;4.648;2022-10-16T07:31:46;13.90;97.10
26687;DHT22;14298;50.900;4.648;2022-10-16T07:34:17;14.10;97.10
26687;DHT22;14298;50.900;4.648;2022-10-16T07:36:48;14.20;97.10
26687;DHT22;14298;50.900;4.648;2022-10-16T07:39:17;14.40;97.10
26687;DHT22;14298;50.900;4.648;2022-10-16T07:41:45;14.50;97.10
26687;DHT22;14298;50.900;4.648;2022-10-16T07:44:15;14.80;97.10
26687;DHT22;14298;50.900;4.648;2022-10-16T07:46:43;15.20;97.10
26687;DHT22;14298;50.900;4.648;2022-10-16T07:49:11;15.50;97.10
26687;DHT22;14298;50.900;4.648;2022-10-16T07:51:39;15.70;97.10
26687;DHT22;14298;50.900;4.648;2022-10-16T07:54:09;15.90;97.10
26687;DHT22;14298;50.900;4.648;2022-10-16T07:56:38;16.00;97.10
26687;DHT22;14298;50.900;4.648;2022-10-16T07:59:06;16.10;97.10
26687;DHT22;14298;50.900;4.648;2022-10-16T08:01:34;16.50;97.10
26687;DHT22;14298;50.900;4.648;2022-10-16T08:04:03;16.70;97.10
26687;DHT22;14298;50.900;4.648;2022-10-16T08:06:34;17.00;97.10
26687;DHT22;14298;50.900;4.648;2022-10-16T08:09:03;17.20;97.10
26687;DHT22;14298;50.900;4.648;2022-10-16T08:11:32;17.40;97.10
26687;DHT22;14298;50.900;4.648;2022-10-16T08:14:01;17.80;97.10
26687;DHT22;14298;50.900;4.648;2022-10-16T08:16:29;18.10;97.10
26687;DHT22;14298;50.900;4.648;2022-10-16T08:18:58;18.50;97.10
26687;DHT22;14298;50.900;4.648;2022-10-16T08:21:26;18.80;97.10
26687;DHT22;14298;50.900;4.648;2022-10-16T08:23:54;18.90;97.10
26687;DHT22;14298;50.900;4.648;2022-10-16T08:26:23;19.00;97.10
26687;DHT22;14298;50.900;4.648;2022-10-16T08:28:52;19.30;97.10
26687;DHT22;14298;50.900;4.648;2022-10-16T08:31:21;19.80;97.10
26687;DHT22;14298;50.900;4.648;2022-10-16T08:33:49;20.00;97.10
26687;DHT22;14298;50.900;4.648;2022-10-16T08:36:19;20.60;97.10
26687;DHT22;14298;50.900;4.648;2022-10-16T08:38:48;21.10;97.10
26687;DHT22;14298;50.900;4.648;2022-10-16T08:49:30;23.10;97.10
26687;DHT22;14298;50.900;4.648;2022-10-16T08:51:59;24.40;97.10
26687;DHT22;14298;50.900;4.648;2022-10-16T08:57:22;24.00;97.10
26687;DHT22;14298;50.900;4.648;2022-10-16T08:59:53;23.10;97.10
26687;DHT22;14298;50.900;4.648;2022-10-16T09:02:27;23.00;97.10
26687;DHT22;14298;50.900;4.648;2022-10-16T09:05:01;23.70;97.10
26687;DHT22;14298;50.900;4.648;2022-10-16T09:07:46;23.50;97.10
26687;DHT22;14298;50.900;4.648;2022-10-16T09:15:49;24.80;97.10
26687;DHT22;14298;50.900;4.648;2022-10-16T09:23:34;26.00;97.10
26687;DHT22;14298;50.900;4.648;2022-10-16T09:26:04;26.30;97.10
26687;DHT22;14298;50.900;4.648;2022-10-16T09:28:33;26.70;97.10
26687;DHT22;14298;50.900;4.648;2022-10-16T09:31:01;26.40;97.10
26687;DHT22;14298;50.900;4.648;2022-10-16T09:33:37;27.10;97.10
26687;DHT22;14298;50.900;4.648;2022-10-16T09:36:08;27.40;97.10
26687;DHT22;14298;50.900;4.648;2022-10-16T09:38:38;25.10;97.10
26687;DHT22;14298;50.900;4.648;2022-10-16T09:41:21;23.30;97.10
26687;DHT22;14298;50.900;4.648;2022-10-16T09:44:22;22.10;97.10
26687;DHT22;14298;50.900;4.648;2022-10-16T09:47:05;21.10;97.10
26687;DHT22;14298;50.900;4.648;2022-10-16T09:49:34;20.20;97.10
26687;DHT22;14298;50.900;4.648;2022-10-16T09:52:23;19.80;97.10
26687;DHT22;14298;50.900;4.648;2022-10-16T09:54:57;19.60;97.10
26687;DHT22;14298;50.900;4.648;2022-10-16T09:57:26;19.50;97.10
26687;DHT22;14298;50.900;4.648;2022-10-16T09:59:57;19.40;97.10
26687;DHT22;14298;50.900;4.648;2022-10-16T10:02:31;19.20;97.10
26687;DHT22;14298;50.900;4.648;2022-10-16T10:05:00;19.10;97.10
26687;DHT22;14298;50.900;4.648;2022-10-16T10:07:42;19.00;97.10
26687;DHT22;14298;50.900;4.648;2022-10-16T10:10:27;18.80;97.10
26687;DHT22;14298;50.900;4.648;2022-10-16T10:12:56;18.70;97.10
26687;DHT22;14298;50.900;4.648;2022-10-16T10:15:25;18.60;97.10
26687;DHT22;14298;50.900;4.648;2022-10-16T10:18:16;18.60;97.10
26687;DHT22;14298;50.900;4.648;2022-10-16T10:20:46;18.60;97.10
26687;DHT22;14298;50.900;4.648;2022-10-16T10:23:24;18.40;97.10
26687;DHT22;14298;50.900;4.648;2022-10-16T10:29:06;18.30;97.10
26687;DHT22;14298;50.900;4.648;2022-10-16T10:31:57;18.20;97.10
26687;DHT22;14298;50.900;4.648;2022-10-16T10:34:50;18.20;97.10
26687;DHT22;14298;50.900;4.648;2022-10-16T10:37:45;18.10;97.10
26687;DHT22;14298;50.900;4.648;2022-10-16T10:40:30;18.20;97.10
26687;DHT22;14298;50.900;4.648;2022-10-16T10:45:52;18.20;97.10
26687;DHT22;14298;50.900;4.648;2022-10-16T10:48:42;18.10;97.10
26687;DHT22;14298;50.900;4.648;2022-10-16T10:53:49;18.40;97.10
26687;DHT22;14298;50.900;4.648;2022-10-16T11:02:12;18.40;97.10
26687;DHT22;14298;50.900;4.648;2022-10-16T11:05:10;18.60;97.10
26687;DHT22;14298;50.900;4.648;2022-10-16T11:07:45;18.90;97.10
26687;DHT22;14298;50.900;4.648;2022-10-16T11:10:20;19.00;97.10
26687;DHT22;14298;50.900;4.648;2022-10-16T11:12:58;18.90;97.10
26687;DHT22;14298;50.900;4.648;2022-10-16T11:15:29;19.00;97.10
26687;DHT22;14298;50.900;4.648;2022-10-16T11:18:02;19.10;97.10
26687;DHT22;14298;50.900;4.648;2022-10-16T11:20:37;19.10;97.10
26687;DHT22;14298;50.900;4.648;2022-10-16T11:23:04;19.20;97.10
26687;DHT22;14298;50.900;4.648;2022-10-16T11:25:33;19.10;97.10
26687;DHT22;14298;50.900;4.648;2022-10-16T11:28:06;19.10;97.10
26687;DHT22;14298;50.900;4.648;2022-10-16T11:30:39;19.20;97.10
26687;DHT22;14298;50.900;4.648;2022-10-16T11:38:58;19.30;97.10
26687;DHT22;14298;50.900;4.648;2022-10-16T11:41:50;19.30;97.10
26687;DHT22;14298;50.900;4.648;2022-10-16T11:46:52;19.10;97.10
26687;DHT22;14298;50.900;4.648;2022-10-16T11:49:22;19.00;97.10
26687;DHT22;14298;50.900;4.648;2022-10-16T11:54:51;18.90;97.10
26687;DHT22;14298;50.900;4.648;2022-10-16T11:57:24;18.80;97.10
26687;DHT22;14298;50.900;4.648;2022-10-16T11:59:58;18.70;97.10
26687;DHT22;14298;50.900;4.648;2022-10-16T12:02:38;18.60;97.10
26687;DHT22;14298;50.900;4.648;2022-10-16T12:08:18;18.60;97.10
26687;DHT22;14298;50.900;4.648;2022-10-16T12:10:47;18.60;97.10
26687;DHT22;14298;50.900;4.648;2022-10-16T12:13:40;18.60;97.10
26687;DHT22;14298;50.900;4.648;2022-10-16T12:18:45;19.00;97.10
26687;DHT22;14298;50.900;4.648;2022-10-16T12:21:15;19.00;97.10
26687;DHT22;14298;50.900;4.648;2022-10-16T12:23:51;19.10;97.10
26687;DHT22;14298;50.900;4.648;2022-10-16T12:26:34;19.20;97.10
26687;DHT22;14298;50.900;4.648;2022-10-16T12:29:21;19.30;97.10
26687;DHT22;14298;50.900;4.648;2022-10-16T12:32:04;19.20;97.10
26687;DHT22;14298;50.900;4.648;2022-10-16T12:34:44;19.30;97.10
26687;DHT22;14298;50.900;4.648;2022-10-16T12:37:20;19.40;97.10
26687;DHT22;14298;50.900;4.648;2022-10-16T12:39:50;19.40;97.10
26687;DHT22;14298;50.900;4.648;2022-10-16T12:44:57;19.40;97.10
26687;DHT22;14298;50.900;4.648;2022-10-16T12:50:21;19.60;97.10
26687;DHT22;14298;50.900;4.648;2022-10-16T12:52:37;19.50;97.10
26687;DHT22;14298;50.900;4.648;2022-10-16T12:55:12;19.40;97.10
26687;DHT22;14298;50.900;4.648;2022-10-16T12:58:26;19.40;97.10
26687;DHT22;14298;50.900;4.648;2022-10-16T13:00:44;19.50;97.10
26687;DHT22;14298;50.900;4.648;2022-10-16T13:06:17;19.70;97.10
26687;DHT22;14298;50.900;4.648;2022-10-16T13:11:58;19.90;97.10
26687;DHT22;14298;50.900;4.648;2022-10-16T13:17:42;19.80;97.10
26687;DHT22;14298;50.900;4.648;2022-10-16T13:23:11;19.80;97.10
26687;DHT22;14298;50.900;4.648;2022-10-16T13:28:29;19.70;97.10
26687;DHT22;14298;50.900;4.648;2022-10-16T13:31:00;19.80;97.10
26687;DHT22;14298;50.900;4.648;2022-10-16T13:33:43;19.80;97.10
26687;DHT22;14298;50.900;4.648;2022-10-16T13:36:17;19.80;97.10
26687;DHT22;14298;50.900;4.648;2022-10-16T13:38:37;19.80;97.10
26687;DHT22;14298;50.900;4.648;2022-10-16T13:41:16;19.70;97.10
26687;DHT22;14298;50.900;4.648;2022-10-16T13:43:48;19.50;97.10
26687;DHT22;14298;50.900;4.648;2022-10-16T13:46:24;19.50;97.10
26687;DHT22;14298;50.900;4.648;2022-10-16T13:49:02;19.50;97.10
26687;DHT22;14298;50.900;4.648;2022-10-16T13:51:31;19.70;97.10
26687;DHT22;14298;50.900;4.648;2022-10-16T13:54:00;19.80;97.10
26687;DHT22;14298;50.900;4.648;2022-10-16T13:56:30;19.70;97.10
26687;DHT22;14298;50.900;4.648;2022-10-16T13:59:22;19.50;97.10
26687;DHT22;14298;50.900;4.648;2022-10-16T14:01:42;19.40;97.10
26687;DHT22;14298;50.900;4.648;2022-10-16T14:04:12;19.30;97.10
26687;DHT22;14298;50.900;4.648;2022-10-16T14:07:00;19.40;97.10
26687;DHT22;14298;50.900;4.648;2022-10-16T14:09:30;19.30;97.10
26687;DHT22;14298;50.900;4.648;2022-10-16T14:12:01;19.30;97.10
26687;DHT22;14298;50.900;4.648;2022-10-16T14:14:45;19.40;97.10
26687;DHT22;14298;50.900;4.648;2022-10-16T14:17:23;19.50;97.10
26687;DHT22;14298;50.900;4.648;2022-10-16T14:20:00;19.50;97.10
26687;DHT22;14298;50.900;4.648;2022-10-16T14:22:38;19.40;97.10
26687;DHT22;14298;50.900;4.648;2022-10-16T14:25:23;19.40;97.10
26687;DHT22;14298;50.900;4.648;2022-10-16T14:28:21;19.40;97.10
26687;DHT22;14298;50.900;4.648;2022-10-16T14:30:53;19.40;97.10
26687;DHT22;14298;50.900;4.648;2022-10-16T14:36:03;19.40;97.10
26687;DHT22;14298;50.900;4.648;2022-10-16T14:38:32;19.30;97.10
26687;DHT22;14298;50.900;4.648;2022-10-16T14:41:01;19.30;97.10
26687;DHT22;14298;50.900;4.648;2022-10-16T14:43:39;19.30;97.10
26687;DHT22;14298;50.900;4.648;2022-10-16T14:46:13;19.20;97.10
26687;DHT22;14298;50.900;4.648;2022-10-16T14:48:43;19.20;97.10
26687;DHT22;14298;50.900;4.648;2022-10-16T14:51:18;19.10;97.10
26687;DHT22;14298;50.900;4.648;2022-10-16T14:53:47;19.10;97.10
26687;DHT22;14298;50.900;4.648;2022-10-16T14:59:05;19.00;97.10
26687;DHT22;14298;50.900;4.648;2022-10-16T15:01:33;19.00;97.10
26687;DHT22;14298;50.900;4.648;2022-10-16T15:04:01;18.90;97.10
26687;DHT22;14298;50.900;4.648;2022-10-16T15:06:30;18.90;97.10
26687;DHT22;14298;50.900;4.648;2022-10-16T15:08:58;18.90;97.10
26687;DHT22;14298;50.900;4.648;2022-10-16T15:11:26;18.80;97.10
26687;DHT22;14298;50.900;4.648;2022-10-16T15:13:55;18.80;97.10
26687;DHT22;14298;50.900;4.648;2022-10-16T15:16:23;18.80;97.10
26687;DHT22;14298;50.900;4.648;2022-10-16T15:19:11;18.80;97.10
26687;DHT22;14298;50.900;4.648;2022-10-16T15:21:39;18.80;97.10
26687;DHT22;14298;50.900;4.648;2022-10-16T15:24:12;18.80;97.10
26687;DHT22;14298;50.900;4.648;2022-10-16T15:26:41;18.80;97.10
26687;DHT22;14298;50.900;4.648;2022-10-16T15:29:09;18.90;97.10
26687;DHT22;14298;50.900;4.648;2022-10-16T15:31:38;18.80;97.10
26687;DHT22;14298;50.900;4.648;2022-10-16T15:34:09;18.70;97.10
26687;DHT22;14298;50.900;4.648;2022-10-16T15:36:39;18.60;97.10
26687;DHT22;14298;50.900;4.648;2022-10-16T15:39:13;18.60;97.10
26687;DHT22;14298;50.900;4.648;2022-10-16T15:41:43;18.60;97.10
26687;DHT22;14298;50.900;4.648;2022-10-16T15:44:12;18.60;97.10
26687;DHT22;14298;50.900;4.648;2022-10-16T15:46:41;18.50;97.10
26687;DHT22;14298;50.900;4.648;2022-10-16T15:49:09;18.40;97.10
26687;DHT22;14298;50.900;4.648;2022-10-16T15:51:40;18.40;97.10
26687;DHT22;14298;50.900;4.648;2022-10-16T15:54:09;18.30;97.10
26687;DHT22;14298;50.900;4.648;2022-10-16T15:56:37;18.20;97.10
26687;DHT22;14298;50.900;4.648;2022-10-16T15:59:06;18.20;97.10
26687;DHT22;14298;50.900;4.648;2022-10-16T16:01:35;18.10;97.10
26687;DHT22;14298;50.900;4.648;2022-10-16T16:04:04;18.00;97.10
26687;DHT22;14298;50.900;4.648;2022-10-16T16:06:32;18.00;97.10
26687;DHT22;14298;50.900;4.648;2022-10-16T16:09:01;17.90;97.10
26687;DHT22;14298;50.900;4.648;2022-10-16T16:11:30;17.80;97.10
26687;DHT22;14298;50.900;4.648;2022-10-16T16:13:59;17.70;97.10
26687;DHT22;14298;50.900;4.648;2022-10-16T16:16:28;17.70;97.10
26687;DHT22;14298;50.900;4.648;2022-10-16T16:18:56;17.60;97.10
26687;DHT22;14298;50.900;4.648;2022-10-16T16:21:24;17.50;97.10
26687;DHT22;14298;50.900;4.648;2022-10-16T16:23:53;17.40;97.10
26687;DHT22;14298;50.900;4.648;2022-10-16T16:26:29;17.30;97.10
26687;DHT22;14298;50.900;4.648;2022-10-16T16:29:03;17.20;97.10
26687;DHT22;14298;50.900;4.648;2022-10-16T16:31:33;17.10;97.10
26687;DHT22;14298;50.900;4.648;2022-10-16T16:34:02;17.00;97.10
26687;DHT22;14298;50.900;4.648;2022-10-16T16:36:30;17.00;97.10
26687;DHT22;14298;50.900;4.648;2022-10-16T16:38:59;17.00;97.10
26687;DHT22;14298;50.900;4.648;2022-10-16T16:41:29;16.90;97.10
26687;DHT22;14298;50.900;4.648;2022-10-16T16:44:06;16.90;97.10
26687;DHT22;14298;50.900;4.648;2022-10-16T16:46:36;16.80;97.10
26687;DHT22;14298;50.900;4.648;2022-10-16T16:49:06;16.70;97.10
26687;DHT22;14298;50.900;4.648;2022-10-16T16:51:34;16.70;97.10
26687;DHT22;14298;50.900;4.648;2022-10-16T16:54:03;16.70;97.10
26687;DHT22;14298;50.900;4.648;2022-10-16T16:56:31;16.70;97.10
26687;DHT22;14298;50.900;4.648;2022-10-16T16:59:00;16.70;97.10
26687;DHT22;14298;50.900;4.648;2022-10-16T17:01:28;16.60;97.10
26687;DHT22;14298;50.900;4.648;2022-10-16T17:03:58;16.60;97.10
26687;DHT22;14298;50.900;4.648;2022-10-16T17:06:29;16.50;97.10
26687;DHT22;14298;50.900;4.648;2022-10-16T17:09:00;16.40;97.10
26687;DHT22;14298;50.900;4.648;2022-10-16T17:11:28;16.30;97.10
26687;DHT22;14298;50.900;4.648;2022-10-16T17:13:58;16.30;97.10
26687;DHT22;14298;50.900;4.648;2022-10-16T17:16:30;16.30;97.10
26687;DHT22;14298;50.900;4.648;2022-10-16T17:19:02;16.30;97.10
26687;DHT22;14298;50.900;4.648;2022-10-16T17:21:31;16.30;97.10
26687;DHT22;14298;50.900;4.648;2022-10-16T17:24:00;16.10;97.10
26687;DHT22;14298;50.900;4.648;2022-10-16T17:26:29;15.80;97.10
26687;DHT22;14298;50.900;4.648;2022-10-16T17:28:59;15.60;97.10
26687;DHT22;14298;50.900;4.648;2022-10-16T17:31:31;15.50;97.10
26687;DHT22;14298;50.900;4.648;2022-10-16T17:34:00;15.40;97.10
26687;DHT22;14298;50.900;4.648;2022-10-16T17:36:31;15.30;97.10